This is the latest recevied weather packets stored in our database for station/object WX6HNX-4. If no packets are shown the sender has not sent any weather packets the latest 1 day(s).
| Time | Temp. | Humidity | Pressure | Rain* | Wind** | Luminosity | Snow |
|---|---|---|---|---|---|---|---|
| 1778037555 | 15° C | 70% | 1006.9 hPa | 0 mm | 1.34 m/s, 60° | - | - |
| 1778035754 | 15° C | 69% | 1006.6 hPa | 0 mm | 1.34 m/s, 55° | - | - |
| 1778035153 | 15° C | 69% | 1006.4 hPa | 0 mm | 1.34 m/s, 56° | - | - |
| 1778032874 | 15° C | 69% | 1006.3 hPa | 0 mm | 1.34 m/s, 60° | - | - |
| 1778031974 | 15° C | 70% | 1006.2 hPa | 0 mm | 1.34 m/s, 49° | - | - |
| 1778030010 | 15° C | 68% | 1006.1 hPa | 0 mm | 2.24 m/s, 37° | - | - |
| 1778028810 | 15° C | 69% | 1006.1 hPa | 0 mm | 1.79 m/s, 41° | - | - |
| 1778028047 | 15° C | 71% | 1006.1 hPa | 0 mm | 1.79 m/s, 30° | - | - |
| 1778021997 | 15.56° C | 74% | 1005.9 hPa | 0 mm | 3.13 m/s, 20° | - | - |
| 1778020500 | 16.11° C | 72% | 1006.2 hPa | 0 mm | 0 m/s | - | - |
| 1778019599 | 15° C | 75% | 1006.5 hPa | 0 mm | 0 m/s | - | - |
| 1778019299 | 15° C | 76% | 1006.5 hPa | 0 mm | 0.89 m/s, 129° | - | - |
| 1778017156 | 13.33° C | 86% | 1006.9 hPa | 0 mm | 1.34 m/s, 40° | - | - |
| 1778016857 | 12.78° C | 86% | 1007.1 hPa | 0 mm | 0.89 m/s, 39° | - | - |
| 1778015714 | 12.78° C | 87% | 1007.3 hPa | 0 mm | 1.34 m/s, 19° | - | - |
| 1778015414 | 12.78° C | 87% | 1007.3 hPa | 0 mm | 1.34 m/s, 11° | - | - |
| 1778015114 | 13.33° C | 87% | 1007.3 hPa | 0 mm | 1.34 m/s, 29° | - | - |
| 1778014214 | 12.78° C | 86% | 1007.3 hPa | 0 mm | 1.34 m/s, 55° | - | - |
| 1778013914 | 12.78° C | 85% | 1007.3 hPa | 0 mm | 1.79 m/s, 47° | - | - |
| 1778013614 | 13.33° C | 83% | 1007.3 hPa | 0 mm | 1.34 m/s, 16° | - | - |
| 1778012114 | 12.78° C | 83% | 1007.2 hPa | 0 mm | 0.89 m/s, 233° | - | - |
| 1778011214 | 12.78° C | 85% | 1007.3 hPa | 0 mm | 1.79 m/s, 222° | - | - |
| 1778009834 | 12.22° C | 88% | 1007.5 hPa | 0 mm | 2.24 m/s, 236° | - | - |
| 1778009534 | 12.22° C | 88% | 1007.5 hPa | 0 mm | 2.24 m/s, 218° | - | - |
| 1778009234 | 12.22° C | 88% | 1007.4 hPa | 0 mm | 2.68 m/s, 219° | - | - |
* Rain latest hour (hover to see other rain measurements)
** Current wind speed in m/s (hover to see current wind gust speed)